Time;durP1;ratioP1;P1;durP2;ratioP2;P2;SDS_P1;SDS_P2;PMS_P1;PMS_P2;Temp;Humidity;BMP_temperature;BMP_pressure;BME280_temperature;BME280_humidity;BME280_pressure;Samples;Min_cycle;Max_cycle;Signal;HPM_P1;HPM_P2
2023/12/28 00:03:45;;;;;;;3.10;1.30;;;8.50;99.90;;;;;;7359447;32;20164;-57
2023/12/28 00:07:46;;;;;;;5.78;1.40;;;8.50;99.90;;;;;;7355651;32;20168;-61
2023/12/28 00:11:48;;;;;;;3.45;1.30;;;8.50;99.90;;;;;;7367446;32;20099;-58
2023/12/28 00:15:50;;;;;;;2.25;1.20;;;8.50;99.90;;;;;;7361631;32;20327;-57
2023/12/28 00:19:52;;;;;;;3.97;1.20;;;8.70;99.90;;;;;;7363253;32;20679;-57
2023/12/28 00:23:54;;;;;;;5.15;1.17;;;8.80;99.90;;;;;;7357654;32;20123;-57
2023/12/28 00:27:55;;;;;;;2.22;1.10;;;8.90;99.90;;;;;;7360684;32;20270;-57
2023/12/28 00:31:57;;;;;;;2.67;1.30;;;9.10;99.90;;;;;;7362295;32;20552;-57
2023/12/28 00:35:59;;;;;;;3.42;1.23;;;9.20;99.90;;;;;;7361528;32;20514;-57
2023/12/28 00:40:01;;;;;;;1.83;1.08;;;9.20;99.90;;;;;;7364059;32;20123;-57
2023/12/28 00:44:05;;;;;;;2.40;1.30;;;9.30;99.90;;;;;;7352109;32;20310;-57
2023/12/28 00:48:06;;;;;;;3.45;1.40;;;9.40;99.90;;;;;;7363241;32;20147;-57
2023/12/28 00:52:08;;;;;;;2.83;1.45;;;9.40;99.90;;;;;;7362406;32;20439;-58
2023/12/28 00:56:10;;;;;;;2.58;1.10;;;9.50;99.90;;;;;;7356909;32;20629;-57
2023/12/28 01:00:12;;;;;;;4.53;1.10;;;9.50;99.90;;;;;;7361853;32;20541;-56
2023/12/28 01:04:14;;;;;;;2.10;1.10;;;9.50;99.90;;;;;;7359867;32;20107;-57
2023/12/28 01:08:17;;;;;;;3.67;1.08;;;9.50;99.90;;;;;;7366037;32;20189;-57
2023/12/28 01:12:19;;;;;;;2.67;1.10;;;9.50;99.90;;;;;;7364750;32;20446;-58
2023/12/28 01:16:21;;;;;;;3.28;1.60;;;9.50;99.90;;;;;;7359984;32;20330;-57
2023/12/28 01:20:22;;;;;;;2.28;1.10;;;9.50;99.90;;;;;;7354960;32;20518;-56
2023/12/28 01:24:26;;;;;;;3.00;1.20;;;9.60;99.90;;;;;;7360391;32;20280;-57
2023/12/28 01:28:28;;;;;;;2.12;1.12;;;9.50;99.90;;;;;;7359589;32;20111;-59
2023/12/28 01:32:30;;;;;;;4.87;1.25;;;9.50;99.90;;;;;;7359396;32;20130;-57
2023/12/28 01:36:31;;;;;;;1.92;1.10;;;9.50;99.90;;;;;;7360991;32;20642;-56
2023/12/28 01:40:33;;;;;;;3.37;1.40;;;9.50;99.90;;;;;;7357433;32;20133;-57
2023/12/28 01:44:35;;;;;;;3.50;1.45;;;9.50;99.90;;;;;;7367180;32;20474;-57
2023/12/28 01:48:37;;;;;;;4.05;1.20;;;9.50;99.90;;;;;;7367335;32;20242;-56
2023/12/28 01:52:39;;;;;;;1.62;1.08;;;9.50;99.90;;;;;;7364813;32;20124;-56
2023/12/28 01:56:42;;;;;;;2.92;1.35;;;9.40;99.90;;;;;;7356388;32;20589;-55
2023/12/28 02:00:45;;;;;;;3.25;1.10;;;9.40;99.90;;;;;;7366005;32;20100;-55
2023/12/28 02:04:47;;;;;;;4.32;1.20;;;9.40;99.90;;;;;;7362130;32;20142;-56
2023/12/28 02:08:48;;;;;;;4.05;1.50;;;9.40;99.90;;;;;;7357729;32;20645;-55
2023/12/28 02:12:53;;;;;;;2.05;1.20;;;9.40;99.90;;;;;;7362489;32;20212;-55
2023/12/28 02:17:03;;;;;;;1.98;1.20;;;9.40;99.90;;;;;;7356845;32;20569;-54
2023/12/28 02:21:06;;;;;;;2.20;1.10;;;9.40;99.90;;;;;;7358870;32;20164;-54
2023/12/28 02:25:11;;;;;;;7.05;1.60;;;9.40;99.90;;;;;;7362312;32;20682;-56
2023/12/28 02:29:13;;;;;;;6.50;1.58;;;9.40;99.90;;;;;;7358966;32;20107;-56
2023/12/28 02:33:42;;;;;;;3.17;1.35;;;9.40;99.90;;;;;;7358337;32;20251;-56
2023/12/28 02:37:50;;;;;;;3.55;1.50;;;9.40;99.90;;;;;;7359145;32;20831;-56
2023/12/28 02:41:52;;;;;;;4.03;1.30;;;9.40;99.90;;;;;;7361908;32;20876;-56
2023/12/28 02:45:53;;;;;;;1.85;1.25;;;9.40;99.90;;;;;;7362272;32;20154;-55
2023/12/28 02:49:58;;;;;;;5.15;1.40;;;9.40;99.90;;;;;;7358100;32;20115;-56
2023/12/28 02:54:00;;;;;;;2.05;1.20;;;9.40;99.90;;;;;;7364645;32;20166;-57
2023/12/28 02:58:02;;;;;;;3.20;1.80;;;9.40;99.90;;;;;;7362506;32;20110;-56
2023/12/28 03:02:05;;;;;;;5.87;1.40;;;9.40;99.90;;;;;;7367159;32;20099;-55
2023/12/28 03:06:07;;;;;;;2.33;1.45;;;9.50;99.90;;;;;;7369194;32;20542;-56
2023/12/28 03:10:11;;;;;;;4.75;1.60;;;9.50;99.90;;;;;;7367524;32;20102;-57
2023/12/28 03:14:15;;;;;;;2.97;1.40;;;9.50;99.90;;;;;;7362872;32;20249;-57
2023/12/28 03:18:17;;;;;;;2.95;1.60;;;9.50;99.90;;;;;;7367531;32;20209;-58
2023/12/28 03:22:19;;;;;;;4.82;1.60;;;9.50;99.90;;;;;;7365465;32;20107;-56
2023/12/28 03:26:21;;;;;;;3.22;1.50;;;9.60;99.90;;;;;;7362886;32;20194;-56
2023/12/28 03:30:23;;;;;;;4.28;1.75;;;9.50;99.90;;;;;;7367358;32;20213;-56
2023/12/28 03:34:26;;;;;;;3.75;1.42;;;9.60;99.90;;;;;;7358908;32;20162;-56
2023/12/28 03:38:28;;;;;;;6.78;1.77;;;9.60;99.90;;;;;;7367237;32;20224;-56
2023/12/28 03:42:30;;;;;;;4.20;1.92;;;9.70;99.90;;;;;;7362488;32;20202;-56
2023/12/28 03:46:32;;;;;;;7.32;1.77;;;9.60;99.90;;;;;;7364331;32;20190;-56
2023/12/28 03:50:34;;;;;;;2.50;1.30;;;9.60;99.90;;;;;;7357882;32;20143;-57
2023/12/28 03:54:36;;;;;;;4.40;1.67;;;9.60;99.90;;;;;;7361770;32;20309;-56
2023/12/28 03:58:38;;;;;;;4.40;1.35;;;9.70;99.90;;;;;;7365872;32;20161;-56
2023/12/28 04:02:40;;;;;;;4.35;1.50;;;9.70;99.90;;;;;;7364140;32;20111;-56
2023/12/28 04:06:43;;;;;;;3.10;1.62;;;9.70;99.90;;;;;;7363935;32;20261;-56
2023/12/28 04:10:45;;;;;;;4.32;1.30;;;9.70;99.90;;;;;;7367827;32;20232;-56
2023/12/28 04:14:47;;;;;;;4.05;1.42;;;9.70;99.90;;;;;;7358383;32;20217;-56
2023/12/28 04:18:49;;;;;;;4.00;1.40;;;9.70;99.90;;;;;;7356946;32;20171;-57
2023/12/28 04:22:50;;;;;;;2.15;1.27;;;9.60;99.90;;;;;;7363344;32;20222;-56
2023/12/28 04:26:52;;;;;;;3.70;1.27;;;9.70;99.90;;;;;;7363990;32;20107;-55
2023/12/28 04:30:54;;;;;;;4.57;1.40;;;9.70;99.90;;;;;;7364476;32;20130;-56
2023/12/28 04:34:56;;;;;;;3.45;1.25;;;9.60;99.90;;;;;;7366244;32;20530;-56
2023/12/28 04:38:58;;;;;;;5.82;1.55;;;9.60;99.90;;;;;;7362128;32;20106;-56
2023/12/28 04:42:59;;;;;;;3.30;1.50;;;9.70;99.90;;;;;;7363486;32;20115;-56
2023/12/28 04:47:02;;;;;;;4.87;1.40;;;9.70;99.90;;;;;;7363363;32;20166;-56
2023/12/28 04:51:04;;;;;;;4.80;1.20;;;9.80;99.90;;;;;;7367965;32;20187;-56
2023/12/28 04:55:06;;;;;;;2.45;1.25;;;9.80;99.90;;;;;;7359683;32;20179;-56
2023/12/28 04:59:08;;;;;;;2.67;1.00;;;9.80;99.90;;;;;;7355685;32;20557;-56
2023/12/28 05:03:09;;;;;;;2.92;1.23;;;9.90;99.90;;;;;;7357515;32;20779;-55
2023/12/28 05:07:11;;;;;;;2.40;0.82;;;9.90;99.90;;;;;;7364113;32;20132;-56
2023/12/28 05:11:13;;;;;;;2.97;1.20;;;9.90;99.90;;;;;;7360923;32;20166;-57
2023/12/28 05:15:15;;;;;;;5.00;1.27;;;9.80;99.90;;;;;;7357618;32;20179;-55
2023/12/28 05:19:17;;;;;;;4.40;1.20;;;9.80;99.90;;;;;;7364732;32;20195;-56
2023/12/28 05:23:19;;;;;;;4.75;1.30;;;9.90;99.90;;;;;;7363120;32;20401;-56
2023/12/28 05:27:20;;;;;;;5.12;1.20;;;9.90;99.90;;;;;;7361951;32;20258;-57
2023/12/28 05:31:22;;;;;;;6.22;1.87;;;9.90;99.90;;;;;;7357346;32;20317;-56
2023/12/28 05:35:24;;;;;;;5.22;1.10;;;9.90;99.90;;;;;;7362241;32;20155;-56
2023/12/28 05:39:26;;;;;;;3.78;1.23;;;9.90;99.90;;;;;;7366085;32;20150;-57
2023/12/28 05:43:27;;;;;;;3.95;1.30;;;9.80;99.90;;;;;;7357841;32;20445;-56
2023/12/28 05:47:29;;;;;;;4.20;1.12;;;9.90;99.90;;;;;;7364371;32;20155;-56
2023/12/28 05:51:40;;;;;;;5.18;1.30;;;9.90;99.90;;;;;;7365747;32;20212;-56
2023/12/28 05:55:41;;;;;;;3.78;1.20;;;9.80;99.90;;;;;;7359078;32;20222;-56
2023/12/28 05:59:43;;;;;;;4.57;1.23;;;9.90;99.90;;;;;;7361088;32;20159;-55
2023/12/28 06:03:45;;;;;;;3.15;1.20;;;9.90;99.90;;;;;;7367036;32;20244;-55
2023/12/28 06:07:47;;;;;;;4.35;1.05;;;9.80;99.90;;;;;;7354962;32;20322;-55
2023/12/28 06:11:48;;;;;;;4.32;1.33;;;9.90;99.90;;;;;;7358912;32;20150;-56
2023/12/28 06:15:50;;;;;;;3.58;1.02;;;9.90;99.90;;;;;;7356433;32;20121;-55
2023/12/28 06:19:52;;;;;;;2.75;1.05;;;9.90;99.90;;;;;;7358829;32;20115;-57
2023/12/28 06:23:55;;;;;;;3.53;1.30;;;9.90;99.90;;;;;;7359400;32;21871;-55
2023/12/28 06:27:57;;;;;;;3.65;1.25;;;9.90;99.90;;;;;;7364705;32;20261;-56
2023/12/28 06:31:59;;;;;;;6.95;1.80;;;9.80;99.90;;;;;;7343865;32;20512;-54
2023/12/28 06:36:05;;;;;;;3.25;1.50;;;9.80;99.90;;;;;;7348047;32;20126;-56
2023/12/28 06:40:08;;;;;;;2.12;1.02;;;9.80;99.90;;;;;;7347734;32;21205;-57
2023/12/28 06:44:13;;;;;;;3.05;1.33;;;9.80;99.90;;;;;;7358555;32;20129;-57
2023/12/28 06:48:15;;;;;;;4.62;1.23;;;9.80;99.90;;;;;;7358890;32;20645;-55
2023/12/28 06:52:17;;;;;;;4.05;1.50;;;9.80;99.90;;;;;;7339507;32;20355;-56
2023/12/28 06:56:19;;;;;;;6.87;1.50;;;9.80;99.90;;;;;;7351539;32;20214;-56
2023/12/28 07:00:21;;;;;;;6.97;1.50;;;9.80;99.90;;;;;;7351049;32;20269;-55
2023/12/28 07:04:25;;;;;;;4.80;1.23;;;9.80;99.90;;;;;;7354527;32;20174;-56
2023/12/28 07:08:27;;;;;;;7.50;1.30;;;9.90;99.90;;;;;;7345386;32;20292;-57
2023/12/28 07:12:28;;;;;;;4.37;1.00;;;9.90;99.90;;;;;;7356396;32;20354;-57
2023/12/28 07:16:30;;;;;;;6.32;1.52;;;9.90;99.90;;;;;;7352410;32;20186;-56
2023/12/28 07:20:32;;;;;;;4.45;1.20;;;10.00;99.90;;;;;;7351439;32;20212;-57
2023/12/28 07:24:34;;;;;;;6.55;1.40;;;10.00;99.90;;;;;;7356126;32;20254;-56
2023/12/28 07:28:35;;;;;;;5.90;2.05;;;10.10;99.90;;;;;;7342526;32;20265;-55
2023/12/28 07:32:37;;;;;;;4.90;1.20;;;10.10;99.90;;;;;;7348454;32;20205;-57
2023/12/28 07:36:42;;;;;;;4.70;1.05;;;10.10;99.90;;;;;;7353497;32;20362;-57
2023/12/28 07:40:44;;;;;;;4.50;1.17;;;10.10;99.90;;;;;;7359574;32;20178;-58
2023/12/28 07:44:46;;;;;;;4.32;1.12;;;10.10;99.90;;;;;;7354022;32;20158;-57
2023/12/28 07:48:48;;;;;;;9.13;1.65;;;10.30;99.90;;;;;;7354662;32;20414;-57
2023/12/28 07:52:50;;;;;;;6.30;1.20;;;10.20;99.90;;;;;;7358669;32;20198;-57
2023/12/28 07:56:52;;;;;;;6.12;0.98;;;10.20;99.90;;;;;;7357432;32;20194;-57
2023/12/28 08:00:53;;;;;;;4.90;1.00;;;10.20;99.90;;;;;;7353697;32;20749;-59
2023/12/28 08:04:55;;;;;;;6.40;0.98;;;10.20;99.90;;;;;;7357414;32;20213;-57
2023/12/28 08:08:59;;;;;;;8.70;1.70;;;10.20;99.90;;;;;;7350645;32;20234;-58
2023/12/28 08:13:00;;;;;;;9.18;1.23;;;10.20;99.90;;;;;;7351390;32;20178;-59
2023/12/28 08:17:03;;;;;;;9.15;1.60;;;10.20;99.90;;;;;;7354885;32;20123;-59
2023/12/28 08:21:04;;;;;;;6.03;1.60;;;10.20;99.90;;;;;;7365952;32;20544;-58
2023/12/28 08:25:06;;;;;;;3.37;1.10;;;10.20;99.90;;;;;;7368047;32;20572;-58
2023/12/28 08:29:08;;;;;;;8.40;1.10;;;10.20;99.90;;;;;;7362013;32;20220;-58
2023/12/28 08:33:10;;;;;;;8.98;1.98;;;10.20;99.90;;;;;;7366551;32;20134;-57
2023/12/28 08:37:12;;;;;;;6.68;1.58;;;10.20;99.90;;;;;;7353637;32;20335;-57
2023/12/28 08:41:21;;;;;;;10.30;1.50;;;10.20;99.90;;;;;;7355019;32;20261;-59
2023/12/28 08:45:23;;;;;;;7.53;1.67;;;10.20;99.90;;;;;;7353573;32;20220;-59
2023/12/28 08:49:25;;;;;;;8.18;1.15;;;10.20;99.90;;;;;;7351441;32;20138;-59
2023/12/28 08:53:27;;;;;;;7.10;1.40;;;10.30;99.90;;;;;;7360025;32;20269;-60
2023/12/28 08:57:28;;;;;;;12.95;1.45;;;10.20;99.90;;;;;;7359863;32;20142;-59
2023/12/28 09:01:43;;;;;;;6.12;1.35;;;10.30;99.90;;;;;;7347075;32;20111;-59
2023/12/28 09:05:44;;;;;;;7.22;1.40;;;10.30;99.90;;;;;;7355098;32;20196;-57
2023/12/28 09:09:46;;;;;;;8.27;1.20;;;10.20;99.90;;;;;;7355014;32;20190;-57
2023/12/28 09:13:48;;;;;;;7.80;1.35;;;10.30;99.90;;;;;;7351225;32;20182;-59
2023/12/28 09:17:50;;;;;;;4.75;1.20;;;10.30;99.90;;;;;;7357059;32;21202;-59
2023/12/28 09:21:52;;;;;;;9.48;1.62;;;10.40;99.90;;;;;;7349376;32;20391;-55
2023/12/28 09:25:54;;;;;;;8.75;1.48;;;10.50;99.90;;;;;;7355546;32;20190;-57
2023/12/28 09:29:56;;;;;;;6.43;1.20;;;10.60;99.90;;;;;;7353122;32;20126;-56
2023/12/28 09:33:58;;;;;;;12.13;1.35;;;10.60;99.90;;;;;;7353191;32;20202;-57
2023/12/28 09:38:00;;;;;;;5.78;1.37;;;10.60;99.90;;;;;;7359373;32;20670;-57
2023/12/28 09:42:09;;;;;;;7.80;1.15;;;10.70;99.90;;;;;;7358359;32;20224;-56
2023/12/28 09:46:11;;;;;;;7.25;1.50;;;10.70;99.90;;;;;;7360091;32;20282;-57
2023/12/28 09:50:14;;;;;;;6.30;1.42;;;10.70;99.90;;;;;;7365229;32;20161;-56
2023/12/28 09:54:18;;;;;;;7.25;1.55;;;10.70;99.90;;;;;;7361282;32;20636;-57
2023/12/28 09:58:21;;;;;;;8.13;1.73;;;10.80;99.90;;;;;;7360157;32;20096;-56
2023/12/28 10:02:24;;;;;;;12.37;1.70;;;10.80;99.90;;;;;;7356272;32;20329;-57
2023/12/28 10:06:26;;;;;;;8.57;1.33;;;10.80;99.90;;;;;;7363626;32;20174;-56
2023/12/28 10:10:29;;;;;;;7.97;1.20;;;10.80;99.90;;;;;;7356789;32;20189;-58
2023/12/28 10:14:31;;;;;;;7.03;1.52;;;10.90;99.90;;;;;;7358951;32;20180;-56
2023/12/28 10:18:32;;;;;;;11.57;1.95;;;10.80;99.90;;;;;;7363973;32;20119;-55
2023/12/28 10:22:34;;;;;;;5.62;1.23;;;10.90;99.90;;;;;;7356658;32;20114;-55
2023/12/28 10:26:36;;;;;;;8.82;1.40;;;11.00;99.90;;;;;;7353043;32;20187;-57
2023/12/28 10:30:41;;;;;;;4.55;1.35;;;10.90;99.90;;;;;;7362143;32;20223;-56
2023/12/28 10:34:43;;;;;;;9.02;1.40;;;11.00;99.90;;;;;;7361307;32;20198;-57
2023/12/28 10:38:47;;;;;;;9.57;1.83;;;11.00;99.90;;;;;;7360862;32;20256;-57
2023/12/28 10:42:57;;;;;;;11.27;2.70;;;11.00;99.90;;;;;;7356795;32;22553;-57
2023/12/28 10:47:02;;;;;;;8.45;1.83;;;11.10;99.90;;;;;;7359626;32;21295;-56
2023/12/28 10:51:06;;;;;;;8.45;1.70;;;11.10;99.90;;;;;;7365795;32;20133;-57
2023/12/28 10:55:25;;;;;;;6.60;1.50;;;11.20;99.90;;;;;;7358903;32;20244;-60
2023/12/28 10:59:47;;;;;;;8.98;1.48;;;11.40;99.90;;;;;;7363118;32;20283;-55
2023/12/28 11:03:59;;;;;;;8.90;1.30;;;11.50;99.90;;;;;;7357109;32;20572;-58
2023/12/28 11:08:03;;;;;;;5.20;1.25;;;11.40;99.90;;;;;;7366054;32;20281;-57
2023/12/28 11:12:08;;;;;;;10.15;1.52;;;11.60;99.90;;;;;;7361466;32;20233;-56
2023/12/28 11:16:11;;;;;;;8.75;1.30;;;11.60;99.90;;;;;;7362964;32;20252;-56
2023/12/28 11:20:14;;;;;;;7.10;0.90;;;11.70;99.90;;;;;;7361344;32;20315;-56
2023/12/28 11:24:16;;;;;;;7.87;1.30;;;11.70;99.90;;;;;;7364408;32;20118;-55
2023/12/28 11:28:19;;;;;;;8.65;1.40;;;11.60;99.90;;;;;;7369602;32;20322;-58
2023/12/28 11:32:21;;;;;;;5.07;1.27;;;11.60;99.90;;;;;;7362334;32;20576;-57
2023/12/28 11:36:32;;;;;;;7.03;1.30;;;11.60;99.90;;;;;;7370205;32;20179;-56
2023/12/28 11:40:54;;;;;;;11.35;1.80;;;11.70;99.90;;;;;;7361929;32;20153;-56
2023/12/28 11:44:56;;;;;;;10.30;1.42;;;11.80;99.90;;;;;;7359811;32;20590;-57
2023/12/28 11:49:09;;;;;;;7.87;1.40;;;11.80;99.90;;;;;;7363049;32;20125;-59
2023/12/28 11:53:12;;;;;;;9.23;1.73;;;11.80;99.90;;;;;;7360903;32;20111;-56
2023/12/28 11:57:15;;;;;;;6.05;1.15;;;11.90;99.90;;;;;;7359673;32;20281;-57
2023/12/28 12:01:17;;;;;;;5.72;1.33;;;11.90;99.90;;;;;;7363178;32;20527;-57
2023/12/28 12:05:20;;;;;;;11.25;1.70;;;11.90;99.90;;;;;;7359723;32;20220;-57
2023/12/28 12:09:22;;;;;;;7.68;1.08;;;11.80;99.90;;;;;;7360079;32;20259;-57
2023/12/28 12:13:25;;;;;;;6.37;1.20;;;11.70;99.90;;;;;;7359154;32;20211;-58
2023/12/28 12:17:27;;;;;;;7.70;2.45;;;11.70;99.90;;;;;;7359510;32;20700;-58
2023/12/28 12:21:29;;;;;;;11.57;1.85;;;11.70;99.90;;;;;;7364729;32;20150;-57
2023/12/28 12:25:31;;;;;;;12.27;1.10;;;11.70;99.90;;;;;;7356031;32;20131;-57
2023/12/28 12:29:32;;;;;;;8.48;1.40;;;11.60;99.90;;;;;;7365311;32;20166;-57
2023/12/28 12:33:34;;;;;;;6.30;1.37;;;11.60;99.90;;;;;;7359028;32;20199;-57
2023/12/28 12:37:51;;;;;;;5.20;1.30;;;11.70;99.90;;;;;;7359986;32;20186;-56
2023/12/28 12:41:53;;;;;;;5.30;1.40;;;11.60;99.90;;;;;;7358470;32;20148;-58
2023/12/28 12:45:55;;;;;;;8.25;1.25;;;11.50;99.90;;;;;;7349841;32;20189;-58
2023/12/28 12:49:56;;;;;;;4.07;1.10;;;11.50;99.90;;;;;;7348840;32;20313;-61
2023/12/28 12:54:03;;;;;;;8.77;1.35;;;11.60;99.90;;;;;;7348599;32;20155;-59
2023/12/28 12:58:05;;;;;;;9.15;1.30;;;11.60;99.90;;;;;;7351298;32;20106;-59
2023/12/28 13:02:08;;;;;;;7.43;1.35;;;11.70;99.90;;;;;;7354736;32;20107;-58
2023/12/28 13:06:10;;;;;;;8.63;1.58;;;11.60;99.90;;;;;;7359011;32;20411;-59
2023/12/28 13:10:12;;;;;;;7.07;1.35;;;11.60;99.90;;;;;;7363103;32;20206;-60
2023/12/28 13:14:14;;;;;;;5.43;1.62;;;11.70;99.90;;;;;;7354305;32;20471;-60
2023/12/28 13:18:16;;;;;;;7.82;1.50;;;11.60;99.90;;;;;;7350949;32;20224;-59
2023/12/28 13:22:17;;;;;;;8.85;1.52;;;11.60;99.90;;;;;;7358336;32;20244;-58
2023/12/28 13:26:19;;;;;;;7.15;1.58;;;11.50;99.90;;;;;;7359500;32;20267;-58
2023/12/28 13:30:21;;;;;;;8.68;1.60;;;11.50;99.90;;;;;;7360643;32;20161;-59
2023/12/28 13:34:24;;;;;;;5.45;1.15;;;11.50;99.90;;;;;;7364704;32;20115;-59
2023/12/28 13:38:27;;;;;;;10.77;1.50;;;11.50;99.90;;;;;;7359324;32;20178;-57
2023/12/28 13:42:28;;;;;;;9.38;1.27;;;11.50;99.90;;;;;;7363000;32;20149;-59
2023/12/28 13:46:31;;;;;;;6.50;1.20;;;11.50;99.90;;;;;;7361009;32;20254;-58
2023/12/28 13:50:32;;;;;;;10.30;2.22;;;11.40;99.90;;;;;;7356673;32;20212;-57
2023/12/28 13:54:34;;;;;;;11.05;1.58;;;11.40;99.90;;;;;;7360813;32;20122;-57
2023/12/28 13:58:36;;;;;;;3.55;1.00;;;11.40;99.90;;;;;;7360586;32;20414;-59
2023/12/28 14:02:38;;;;;;;7.68;1.50;;;11.30;99.90;;;;;;7361269;32;20130;-58
2023/12/28 14:06:39;;;;;;;9.80;1.33;;;11.40;99.90;;;;;;7364424;32;20868;-59
2023/12/28 14:10:41;;;;;;;7.28;1.25;;;11.30;99.90;;;;;;7357581;32;20174;-59
2023/12/28 14:14:43;;;;;;;6.20;1.00;;;11.30;99.90;;;;;;7358432;32;20173;-57
2023/12/28 14:18:45;;;;;;;8.57;1.25;;;11.40;99.90;;;;;;7350880;32;20201;-59
2023/12/28 14:22:47;;;;;;;11.60;1.27;;;11.30;99.90;;;;;;7362803;32;20161;-58
2023/12/28 14:26:52;;;;;;;7.20;1.20;;;11.30;99.90;;;;;;7364268;32;20099;-58
2023/12/28 14:30:54;;;;;;;5.05;1.10;;;11.20;99.90;;;;;;7362168;32;20151;-58
2023/12/28 14:34:56;;;;;;;5.57;1.17;;;11.20;99.90;;;;;;7373051;32;20130;-58
2023/12/28 14:38:59;;;;;;;6.53;1.00;;;11.20;99.90;;;;;;7374411;32;20418;-58
2023/12/28 14:43:04;;;;;;;5.97;0.98;;;11.20;99.90;;;;;;7363080;32;20103;-58
2023/12/28 14:47:06;;;;;;;9.77;1.45;;;11.20;99.90;;;;;;7368829;32;20129;-57
2023/12/28 14:51:07;;;;;;;8.25;1.35;;;11.10;99.90;;;;;;7367759;32;20118;-56
2023/12/28 14:55:09;;;;;;;8.25;1.27;;;11.10;99.90;;;;;;7365199;32;20152;-56
2023/12/28 14:59:11;;;;;;;10.65;1.55;;;11.00;99.90;;;;;;7372835;32;20178;-56
2023/12/28 15:03:13;;;;;;;6.60;1.12;;;11.00;99.90;;;;;;7360830;32;20244;-57
2023/12/28 15:07:16;;;;;;;7.43;1.00;;;11.00;99.90;;;;;;7366377;32;20115;-57
2023/12/28 15:11:18;;;;;;;4.37;1.02;;;10.90;99.90;;;;;;7368536;32;20103;-57
2023/12/28 15:15:25;;;;;;;7.90;1.17;;;10.90;99.90;;;;;;7359723;32;20171;-56
2023/12/28 15:19:27;;;;;;;7.87;1.00;;;10.90;99.90;;;;;;7366241;32;20478;-58
2023/12/28 15:23:29;;;;;;;7.50;1.08;;;10.80;99.90;;;;;;7359689;32;20169;-58
2023/12/28 15:27:32;;;;;;;5.90;1.27;;;10.80;99.90;;;;;;7365937;32;20170;-57
2023/12/28 15:31:34;;;;;;;5.97;1.00;;;10.70;99.90;;;;;;7365654;32;20278;-63
2023/12/28 15:35:39;;;;;;;8.35;1.80;;;10.80;99.90;;;;;;7364194;32;21557;-62
2023/12/28 15:39:42;;;;;;;9.52;1.60;;;10.90;99.90;;;;;;7366741;32;20119;-64
2023/12/28 15:43:44;;;;;;;4.80;1.17;;;10.90;99.90;;;;;;7372908;32;20174;-62
2023/12/28 15:47:45;;;;;;;8.18;1.02;;;10.90;99.90;;;;;;7361945;32;20166;-57
2023/12/28 15:51:47;;;;;;;5.47;1.33;;;11.10;99.90;;;;;;7362023;32;20138;-57
2023/12/28 15:55:49;;;;;;;4.00;1.02;;;10.90;99.90;;;;;;7365995;32;20099;-58
2023/12/28 16:00:05;;;;;;;9.32;1.48;;;10.80;99.90;;;;;;7348990;32;20707;-58
2023/12/28 16:04:10;;;;;;;8.73;1.02;;;10.70;99.90;;;;;;7356890;32;20232;-57
2023/12/28 16:08:11;;;;;;;7.57;1.45;;;10.70;99.90;;;;;;7371683;32;20186;-58
2023/12/28 16:12:13;;;;;;;5.00;1.00;;;10.70;99.90;;;;;;7369965;32;20099;-57
2023/12/28 16:16:15;;;;;;;5.72;1.20;;;10.70;99.90;;;;;;7368350;32;20173;-57
2023/12/28 16:20:17;;;;;;;6.50;1.12;;;10.70;99.90;;;;;;7370076;32;20186;-57
2023/12/28 16:24:19;;;;;;;6.82;1.40;;;10.60;99.90;;;;;;7372141;32;20197;-57
2023/12/28 16:28:21;;;;;;;5.35;1.02;;;10.60;99.90;;;;;;7370505;32;20258;-57
2023/12/28 16:32:23;;;;;;;9.15;1.17;;;10.60;99.90;;;;;;7366158;32;20213;-55
2023/12/28 16:36:25;;;;;;;7.10;1.30;;;10.60;99.90;;;;;;7366218;32;20411;-56
2023/12/28 16:40:27;;;;;;;4.90;1.00;;;10.60;99.90;;;;;;7365381;32;20099;-56
2023/12/28 16:44:29;;;;;;;7.90;1.02;;;10.60;99.90;;;;;;7363504;32;20219;-57
2023/12/28 16:48:32;;;;;;;6.68;1.42;;;10.50;99.90;;;;;;7371617;32;20124;-59
2023/12/28 16:52:34;;;;;;;6.40;1.10;;;10.60;99.90;;;;;;7368366;32;20601;-57
2023/12/28 16:56:37;;;;;;;11.93;1.37;;;10.50;99.90;;;;;;7364870;32;20148;-57
2023/12/28 17:00:39;;;;;;;5.32;1.20;;;10.60;99.90;;;;;;7369805;32;20134;-54
2023/12/28 17:04:41;;;;;;;10.20;1.42;;;10.60;99.90;;;;;;7364285;32;20246;-55
2023/12/28 17:08:43;;;;;;;6.10;1.05;;;10.50;99.90;;;;;;7358239;32;20236;-57
2023/12/28 17:12:45;;;;;;;10.15;1.10;;;10.50;99.90;;;;;;7357438;32;20773;-54
2023/12/28 17:16:49;;;;;;;6.43;1.20;;;10.50;99.90;;;;;;7363998;32;20141;-58
2023/12/28 17:20:51;;;;;;;6.05;1.17;;;10.50;99.90;;;;;;7355638;32;20240;-59
2023/12/28 17:25:16;;;;;;;4.40;0.90;;;10.50;99.90;;;;;;7347518;32;20193;-61
2023/12/28 17:29:19;;;;;;;6.10;1.17;;;10.50;99.90;;;;;;7348112;32;20207;-60
2023/12/28 17:33:24;;;;;;;6.90;1.10;;;10.50;99.90;;;;;;7349377;32;20198;-57
2023/12/28 17:37:26;;;;;;;4.40;1.00;;;10.40;99.90;;;;;;7353074;32;20465;-57
2023/12/28 17:41:30;;;;;;;4.35;0.90;;;10.30;99.90;;;;;;7344929;32;20271;-58
2023/12/28 17:45:46;;;;;;;5.72;1.15;;;10.30;99.90;;;;;;7352350;32;20106;-57
2023/12/28 17:49:48;;;;;;;7.67;1.17;;;10.30;99.90;;;;;;7348655;32;20377;-58
2023/12/28 17:53:51;;;;;;;5.80;1.00;;;10.30;99.90;;;;;;7352048;32;20135;-57
2023/12/28 17:57:52;;;;;;;2.33;0.80;;;10.30;99.90;;;;;;7349120;32;20328;-57
2023/12/28 18:01:54;;;;;;;4.10;1.12;;;10.30;99.90;;;;;;7348996;32;20182;-56
2023/12/28 18:05:56;;;;;;;5.65;1.33;;;10.30;99.90;;;;;;7352113;32;20209;-57
2023/12/28 18:09:58;;;;;;;4.80;1.15;;;10.30;99.90;;;;;;7348242;32;20834;-58
2023/12/28 18:14:00;;;;;;;5.82;0.93;;;10.30;99.90;;;;;;7346466;32;20306;-58
2023/12/28 18:18:01;;;;;;;3.60;1.00;;;10.40;99.90;;;;;;7356384;32;20663;-57
2023/12/28 18:22:04;;;;;;;6.12;1.20;;;10.30;99.90;;;;;;7346979;32;20472;-57
2023/12/28 18:26:07;;;;;;;4.28;1.10;;;10.30;99.90;;;;;;7345443;32;20576;-56
2023/12/28 18:30:10;;;;;;;7.57;1.10;;;10.30;99.90;;;;;;7353699;32;20831;-56
2023/12/28 18:34:11;;;;;;;9.05;1.17;;;10.30;99.90;;;;;;7352865;32;20773;-56
2023/12/28 18:38:14;;;;;;;5.35;0.90;;;10.30;99.90;;;;;;7355596;32;20193;-56
2023/12/28 18:42:15;;;;;;;5.12;1.37;;;10.30;99.90;;;;;;7359321;32;20207;-55
2023/12/28 18:46:17;;;;;;;7.85;1.42;;;10.20;99.90;;;;;;7360151;32;20203;-59
2023/12/28 18:50:19;;;;;;;4.35;1.12;;;10.20;99.90;;;;;;7365297;32;20202;-57
2023/12/28 18:54:21;;;;;;;2.72;1.00;;;10.30;99.90;;;;;;7357342;32;20257;-55
2023/12/28 18:58:23;;;;;;;4.87;1.08;;;10.20;99.90;;;;;;7358728;32;20917;-57
2023/12/28 19:02:26;;;;;;;2.85;0.93;;;10.20;99.90;;;;;;7357449;32;20234;-57
2023/12/28 19:06:27;;;;;;;3.95;0.85;;;10.20;99.90;;;;;;7358784;32;20118;-57
2023/12/28 19:10:29;;;;;;;2.15;0.80;;;10.20;99.90;;;;;;7352954;32;20186;-57
2023/12/28 19:14:31;;;;;;;6.97;1.27;;;10.30;99.90;;;;;;7354588;32;20107;-57
2023/12/28 19:18:33;;;;;;;7.50;1.33;;;10.20;99.90;;;;;;7358146;32;20213;-56
2023/12/28 19:22:35;;;;;;;6.15;1.45;;;10.30;99.90;;;;;;7359876;32;20118;-56
2023/12/28 19:26:37;;;;;;;6.75;1.65;;;10.20;99.90;;;;;;7358820;32;20556;-57
2023/12/28 19:30:38;;;;;;;4.53;1.35;;;10.20;99.90;;;;;;7355586;32;20117;-57
2023/12/28 19:34:40;;;;;;;6.93;1.23;;;10.20;99.90;;;;;;7358952;32;20130;-57
2023/12/28 19:38:42;;;;;;;7.87;1.20;;;10.20;99.90;;;;;;7365103;32;20208;-57
2023/12/28 19:42:44;;;;;;;5.80;1.35;;;10.20;99.90;;;;;;7365415;32;20155;-57
2023/12/28 19:46:45;;;;;;;6.87;1.27;;;10.20;99.90;;;;;;7364092;32;20750;-57
2023/12/28 19:50:47;;;;;;;4.93;1.40;;;10.20;99.90;;;;;;7357537;32;20552;-57
2023/12/28 19:54:49;;;;;;;3.62;1.00;;;10.10;99.90;;;;;;7362060;32;20848;-56
2023/12/28 19:58:51;;;;;;;6.57;1.37;;;10.20;99.90;;;;;;7365006;32;20272;-57
2023/12/28 20:02:52;;;;;;;6.40;1.20;;;10.20;99.90;;;;;;7362500;32;20430;-56
2023/12/28 20:06:56;;;;;;;5.37;1.27;;;10.20;99.90;;;;;;7357802;32;20112;-56
2023/12/28 20:10:57;;;;;;;4.87;1.08;;;10.20;99.90;;;;;;7360696;32;20106;-56
2023/12/28 20:14:59;;;;;;;3.40;0.80;;;10.20;99.90;;;;;;7362001;32;20099;-57
2023/12/28 20:19:01;;;;;;;4.68;1.25;;;10.20;99.90;;;;;;7362816;32;20123;-58
2023/12/28 20:23:03;;;;;;;4.90;1.42;;;10.20;99.90;;;;;;7364102;32;20239;-56
2023/12/28 20:27:05;;;;;;;4.03;1.15;;;10.10;99.90;;;;;;7359904;32;20655;-56
2023/12/28 20:31:07;;;;;;;6.85;1.20;;;10.10;99.90;;;;;;7357060;32;20107;-56
2023/12/28 20:35:09;;;;;;;8.77;1.10;;;10.10;99.90;;;;;;7363399;32;20219;-57
2023/12/28 20:39:10;;;;;;;3.03;1.00;;;10.10;99.90;;;;;;7360683;32;20131;-57
2023/12/28 20:43:12;;;;;;;4.90;1.15;;;10.10;99.90;;;;;;7365459;32;20235;-58
2023/12/28 20:47:14;;;;;;;5.55;1.25;;;10.10;99.90;;;;;;7365248;32;20179;-56
2023/12/28 20:51:17;;;;;;;4.15;1.00;;;10.10;99.90;;;;;;7360581;32;20493;-57
2023/12/28 20:55:19;;;;;;;4.70;1.52;;;10.10;99.90;;;;;;7364563;32;20104;-57
2023/12/28 20:59:21;;;;;;;5.93;1.10;;;10.10;99.90;;;;;;7358286;32;20830;-57
2023/12/28 21:03:23;;;;;;;3.58;1.20;;;10.10;99.90;;;;;;7361991;32;20228;-56
2023/12/28 21:07:25;;;;;;;5.50;1.00;;;10.10;99.90;;;;;;7356044;32;20644;-57
2023/12/28 21:11:26;;;;;;;6.32;1.00;;;10.10;99.90;;;;;;7359680;32;20119;-55